createdAt,value
2019-01-10T00:02:56.815Z,4.00
2019-01-10T00:05:25.567Z,4.10
2019-01-10T00:07:54.273Z,3.90
2019-01-10T00:10:23.074Z,4.00
2019-01-10T00:17:50.053Z,4.20
2019-01-10T00:20:18.838Z,4.40
2019-01-10T00:30:17.579Z,5.50
2019-01-10T00:32:46.206Z,5.40
2019-01-10T00:37:43.479Z,5.40
2019-01-10T00:40:13.925Z,5.40
2019-01-10T00:42:49.055Z,5.20
2019-01-10T00:47:43.291Z,5.30
2019-01-10T00:50:14.514Z,5.60
2019-01-10T00:52:43.323Z,5.50
2019-01-10T00:55:11.967Z,5.80
2019-01-10T00:57:40.802Z,5.60
2019-01-10T01:00:21.715Z,5.50
2019-01-10T01:02:50.418Z,5.30
2019-01-10T01:05:20.068Z,5.70
2019-01-10T01:07:48.713Z,6.10
2019-01-10T01:10:19.524Z,6.10
2019-01-10T01:12:48.351Z,6.10
2019-01-10T01:15:17.476Z,6.50
2019-01-10T01:17:46.221Z,6.30
2019-01-10T01:22:45.004Z,6.00
2019-01-10T01:25:14.195Z,5.80
2019-01-10T01:27:42.724Z,5.80
2019-01-10T01:30:14.447Z,5.80
2019-01-10T01:32:43.076Z,5.90
2019-01-10T01:35:11.974Z,6.20
2019-01-10T01:37:40.708Z,5.70
2019-01-10T01:42:39.185Z,5.70
2019-01-10T01:45:09.256Z,5.40
2019-01-10T01:47:38.060Z,5.70
2019-01-10T01:50:09.003Z,5.80
2019-01-10T01:52:37.605Z,5.50
2019-01-10T01:55:06.899Z,5.40
2019-01-10T01:57:35.566Z,5.60
2019-01-10T02:00:08.354Z,6.10
2019-01-10T02:02:37.083Z,5.90
2019-01-10T02:05:05.872Z,6.10
2019-01-10T02:10:03.912Z,6.10
2019-01-10T02:12:32.543Z,6.20
2019-01-10T02:15:01.147Z,5.90
2019-01-10T02:17:29.606Z,5.80
2019-01-10T02:19:58.866Z,5.90
2019-01-10T02:22:27.558Z,5.80
2019-01-10T02:24:56.606Z,5.60
2019-01-10T02:27:25.265Z,5.30
2019-01-10T02:29:54.026Z,5.40
2019-01-10T02:32:22.838Z,5.30
2019-01-10T02:34:51.547Z,5.00
2019-01-10T02:37:20.302Z,5.10
2019-01-10T02:39:49.039Z,4.80
2019-01-10T02:42:17.651Z,4.90
2019-01-10T02:47:14.806Z,4.90
2019-01-10T02:49:43.620Z,4.90
2019-01-10T02:52:12.190Z,5.00
2019-01-10T02:54:40.998Z,5.00
2019-01-10T02:57:10.756Z,4.80
2019-01-10T02:59:39.465Z,4.70
2019-01-10T03:02:08.354Z,4.70
2019-01-10T03:04:36.923Z,4.70
2019-01-10T03:07:05.721Z,4.20
2019-01-10T03:09:34.300Z,4.10
2019-01-10T03:12:03.040Z,4.40
2019-01-10T03:14:31.826Z,4.30
2019-01-10T03:17:00.344Z,4.70
2019-01-10T03:19:29.112Z,4.40
2019-01-10T03:21:57.807Z,4.50
2019-01-10T03:24:26.681Z,4.50
2019-01-10T03:31:30.658Z,4.20
2019-01-10T03:34:59.589Z,4.10
2019-01-10T03:37:48.854Z,4.00
2019-01-10T03:40:39.122Z,3.70
2019-01-10T03:43:07.671Z,3.70
2019-01-10T03:48:04.921Z,4.40
2019-01-10T03:50:33.746Z,4.60
2019-01-10T03:53:02.534Z,4.20
2019-01-10T03:55:31.070Z,4.70
2019-01-10T04:02:57.030Z,4.00
2019-01-10T04:05:25.765Z,4.10
2019-01-10T04:07:54.573Z,4.30
2019-01-10T04:12:51.600Z,3.90
2019-01-10T04:15:20.307Z,4.10
2019-01-10T04:17:49.253Z,3.90
2019-01-10T04:20:19.014Z,3.80
2019-01-10T04:22:48.025Z,3.60
2019-01-10T04:25:17.685Z,3.70
2019-01-10T04:27:46.449Z,3.70
2019-01-10T04:30:19.877Z,3.60
2019-01-10T04:32:48.737Z,3.80
2019-01-10T04:35:17.391Z,3.70
2019-01-10T04:37:46.128Z,3.60
2019-01-10T04:42:44.686Z,3.60
2019-01-10T04:45:13.566Z,3.40
2019-01-10T04:47:42.213Z,3.60
2019-01-10T04:52:39.525Z,3.70
2019-01-10T04:55:08.913Z,3.90
2019-01-10T05:02:36.259Z,3.70
2019-01-10T05:05:05.274Z,3.60
2019-01-10T05:07:33.824Z,3.70
2019-01-10T05:10:02.600Z,3.60
2019-01-10T05:14:59.566Z,3.90
2019-01-10T05:17:30.141Z,3.70
2019-01-10T05:22:28.088Z,3.10
2019-01-10T05:27:25.215Z,3.30
2019-01-10T05:29:53.926Z,3.50
2019-01-10T05:32:22.646Z,3.30
2019-01-10T05:34:51.232Z,3.10
2019-01-10T05:39:48.127Z,3.20
2019-01-10T05:42:16.850Z,3.20
2019-01-10T05:44:45.437Z,3.10
2019-01-10T05:47:14.229Z,3.00
2019-01-10T05:49:42.877Z,2.80
2019-01-10T05:52:11.548Z,2.90
2019-01-10T05:54:40.211Z,3.00
2019-01-10T05:59:38.241Z,2.60
2019-01-10T06:02:06.899Z,2.50
2019-01-10T06:04:35.571Z,2.50
2019-01-10T06:07:04.185Z,2.70
2019-01-10T06:09:32.718Z,2.40
2019-01-10T06:14:35.561Z,2.30
2019-01-10T06:17:00.013Z,2.30
2019-01-10T06:21:57.000Z,2.50
2019-01-10T06:26:54.104Z,2.80
2019-01-10T06:29:22.868Z,2.50
2019-01-10T06:31:51.648Z,2.40
2019-01-10T06:34:20.361Z,2.30
2019-01-10T06:39:19.681Z,2.40
2019-01-10T06:41:47.900Z,2.00
2019-01-10T06:51:41.510Z,2.10
2019-01-10T06:54:10.217Z,2.30
2019-01-10T06:56:38.918Z,2.00
2019-01-10T06:59:07.719Z,1.60
2019-01-10T07:16:26.857Z,2.10
2019-01-10T07:18:57.251Z,2.20
2019-01-10T07:21:26.038Z,2.30
2019-01-10T07:26:23.172Z,2.60
2019-01-10T07:28:51.994Z,2.30
2019-01-10T07:31:30.464Z,2.60
2019-01-10T07:34:00.532Z,2.60
2019-01-10T07:38:58.264Z,2.80
2019-01-10T07:41:27.111Z,2.90
2019-01-10T07:43:55.793Z,2.80
2019-01-10T07:46:24.611Z,2.90
2019-01-10T07:48:53.452Z,2.80
2019-01-10T07:51:28.431Z,2.70
2019-01-10T07:53:57.077Z,2.60
2019-01-10T07:56:25.732Z,2.60
2019-01-10T07:58:54.494Z,2.70
2019-01-10T08:01:24.443Z,2.60
2019-01-10T08:03:53.164Z,2.90
2019-01-10T08:06:21.852Z,3.40
2019-01-10T08:08:50.260Z,3.50
2019-01-10T08:13:48.395Z,3.90
2019-01-10T08:16:17.012Z,3.90
2019-01-10T08:18:45.817Z,3.80
2019-01-10T08:21:14.330Z,3.80
2019-01-10T08:23:42.975Z,3.70
2019-01-10T08:26:11.571Z,4.30
2019-01-10T08:28:40.260Z,4.30
2019-01-10T08:31:08.916Z,4.50
2019-01-10T08:33:37.552Z,4.70
2019-01-10T08:36:06.355Z,4.70
2019-01-10T08:38:35.212Z,4.60
2019-01-10T08:41:03.868Z,4.80
2019-01-10T08:43:32.641Z,4.80
2019-01-10T08:46:01.157Z,4.60
2019-01-10T08:48:29.791Z,4.70
2019-01-10T08:50:58.487Z,4.60
2019-01-10T08:53:27.061Z,4.60
2019-01-10T08:55:55.852Z,4.90
2019-01-10T08:58:24.701Z,5.30
2019-01-10T09:00:53.536Z,5.20
2019-01-10T09:03:22.356Z,5.30
2019-01-10T09:05:51.248Z,5.20
2019-01-10T09:08:20.020Z,5.30
2019-01-10T09:10:48.824Z,5.50
2019-01-10T09:13:17.547Z,5.40
2019-01-10T09:15:46.288Z,5.90
2019-01-10T09:20:43.367Z,6.20
2019-01-10T09:23:12.007Z,6.40
2019-01-10T09:25:40.757Z,6.30
2019-01-10T09:28:09.359Z,6.10
2019-01-10T09:30:38.771Z,6.50
2019-01-10T09:33:08.659Z,6.90
2019-01-10T09:35:37.067Z,6.70
2019-01-10T09:38:05.855Z,7.60
2019-01-10T09:40:34.551Z,7.20
2019-01-10T09:43:03.276Z,7.50
2019-01-10T09:45:32.048Z,7.70
2019-01-10T09:48:00.696Z,7.60
2019-01-10T09:50:29.473Z,7.50
2019-01-10T09:52:58.159Z,7.40
2019-01-10T09:55:26.888Z,7.80
2019-01-10T09:57:55.717Z,7.50
2019-01-10T10:00:29.086Z,7.70
2019-01-10T10:02:58.883Z,7.70
2019-01-10T10:05:27.683Z,7.90
2019-01-10T10:07:56.352Z,8.10
2019-01-10T10:10:25.214Z,7.90
2019-01-10T10:12:53.871Z,8.00
2019-01-10T10:15:23.016Z,7.90
2019-01-10T10:17:51.719Z,8.20
2019-01-10T10:20:23.409Z,8.00
2019-01-10T10:22:52.052Z,7.80
2019-01-10T10:25:20.653Z,8.00
2019-01-10T10:27:50.405Z,8.20
2019-01-10T10:30:20.595Z,8.10
2019-01-10T10:32:49.243Z,8.60
2019-01-10T10:35:18.027Z,8.90
2019-01-10T10:37:46.748Z,9.10
2019-01-10T10:40:17.531Z,9.40
2019-01-10T10:42:46.420Z,9.70
2019-01-10T10:45:16.366Z,9.70
2019-01-10T10:47:45.091Z,9.80
2019-01-10T10:50:15.857Z,9.80
2019-01-10T10:52:44.570Z,9.60
2019-01-10T10:55:13.663Z,9.60
2019-01-10T10:57:42.497Z,9.70
2019-01-10T11:00:23.308Z,9.70
2019-01-10T11:02:51.950Z,9.80
2019-01-10T11:05:20.796Z,9.40
2019-01-10T11:07:49.491Z,9.50
2019-01-10T11:10:19.018Z,10.10
2019-01-10T11:12:48.229Z,10.10
2019-01-10T11:15:16.968Z,10.70
2019-01-10T11:17:46.144Z,11.00
2019-01-10T11:20:16.968Z,10.40
2019-01-10T11:22:45.751Z,10.30
2019-01-10T11:25:16.770Z,10.10
2019-01-10T11:27:45.417Z,9.80
2019-01-10T11:30:16.040Z,9.10
2019-01-10T11:32:44.743Z,9.10
2019-01-10T11:35:13.865Z,9.20
2019-01-10T11:37:43.620Z,9.90
2019-01-10T11:40:15.787Z,9.70
2019-01-10T11:42:44.460Z,9.60
2019-01-10T11:45:15.439Z,9.30
2019-01-10T11:47:44.084Z,9.60
2019-01-10T11:50:13.768Z,10.10
2019-01-10T11:52:43.157Z,10.00
2019-01-10T11:55:11.867Z,10.10
2019-01-10T11:57:40.697Z,10.20
2019-01-10T12:00:24.031Z,10.60
2019-01-10T12:02:52.768Z,9.30
2019-01-10T12:05:21.378Z,9.40
2019-01-10T12:07:50.152Z,9.30
2019-01-10T12:10:19.101Z,9.20
2019-01-10T12:12:47.805Z,9.80
2019-01-10T12:15:16.671Z,10.30
2019-01-10T12:17:45.279Z,10.70
2019-01-10T12:20:14.701Z,9.80
2019-01-10T12:22:43.381Z,9.80
2019-01-10T12:25:13.348Z,10.70
2019-01-10T12:27:42.119Z,10.30
2019-01-10T12:30:13.989Z,10.20
2019-01-10T12:32:42.694Z,10.60
2019-01-10T12:35:11.305Z,10.70
2019-01-10T12:37:39.953Z,11.50
2019-01-10T12:40:10.225Z,12.60
2019-01-10T12:42:39.056Z,12.20
2019-01-10T12:45:09.527Z,11.50
2019-01-10T12:47:38.164Z,11.80
2019-01-10T12:50:34.259Z,12.10
2019-01-10T12:53:06.399Z,11.70
2019-01-10T12:55:35.133Z,11.60
2019-01-10T12:58:03.959Z,11.90
2019-01-10T13:00:32.648Z,11.90
2019-01-10T13:03:01.396Z,11.90
2019-01-10T13:05:30.143Z,12.10
2019-01-10T13:08:03.687Z,11.80
2019-01-10T13:10:29.393Z,11.30
2019-01-10T13:12:58.165Z,14.40
2019-01-10T13:15:27.786Z,11.00
2019-01-10T13:17:56.578Z,11.50
2019-01-10T13:20:25.279Z,11.70
2019-01-10T13:22:53.978Z,10.70
2019-01-10T13:25:22.842Z,10.80
2019-01-10T13:27:52.247Z,11.50
2019-01-10T13:30:22.805Z,11.20
2019-01-10T13:32:52.218Z,10.60
2019-01-10T13:35:21.060Z,10.70
2019-01-10T13:37:49.778Z,11.10
2019-01-10T13:40:18.711Z,11.00
2019-01-10T13:42:47.460Z,11.10
2019-01-10T13:45:16.757Z,11.00
2019-01-10T13:47:47.452Z,11.40
2019-01-10T13:50:18.526Z,11.50
2019-01-10T13:52:47.271Z,11.00
2019-01-10T13:55:16.728Z,10.50
2019-01-10T13:57:45.417Z,10.60
2019-01-10T14:00:17.433Z,10.80
2019-01-10T14:02:46.094Z,10.90
2019-01-10T14:05:15.790Z,11.10
2019-01-10T14:07:44.588Z,10.70
2019-01-10T14:10:13.510Z,10.70
2019-01-10T14:12:42.203Z,10.40
2019-01-10T14:15:13.543Z,10.70
2019-01-10T14:17:42.285Z,10.70
2019-01-10T14:20:11.272Z,11.00
2019-01-10T14:22:39.973Z,11.10
2019-01-10T14:25:08.597Z,11.00
2019-01-10T14:27:37.170Z,11.40
2019-01-10T14:30:12.523Z,11.10
2019-01-10T14:32:42.240Z,10.70
2019-01-10T14:35:10.918Z,10.40
2019-01-10T14:37:39.698Z,10.30
2019-01-10T14:40:09.017Z,10.40
2019-01-10T14:42:37.792Z,10.50
2019-01-10T14:45:08.975Z,10.90
2019-01-10T14:47:37.627Z,10.80
2019-01-10T14:50:06.688Z,10.90
2019-01-10T14:52:35.348Z,11.60
2019-01-10T14:55:05.111Z,12.20
2019-01-10T14:57:33.836Z,11.60
2019-01-10T15:00:02.769Z,11.30
2019-01-10T15:02:31.449Z,11.60
2019-01-10T15:04:59.945Z,11.30
2019-01-10T15:07:28.622Z,10.90
2019-01-10T15:09:57.175Z,10.90
2019-01-10T15:12:25.938Z,11.30
2019-01-10T15:14:54.684Z,10.70
2019-01-10T15:17:23.210Z,10.10
2019-01-10T15:19:51.915Z,9.80
2019-01-10T15:22:21.622Z,9.80
2019-01-10T15:24:50.242Z,9.60
2019-01-10T15:27:18.902Z,9.60
2019-01-10T15:29:47.496Z,9.10
2019-01-10T15:32:16.285Z,9.20
2019-01-10T15:34:44.833Z,8.90
2019-01-10T15:37:13.599Z,8.60
2019-01-10T15:39:42.127Z,8.50
2019-01-10T15:42:10.909Z,8.40
2019-01-10T15:44:39.507Z,8.30
2019-01-10T15:49:36.408Z,8.00
2019-01-10T15:52:05.088Z,7.90
2019-01-10T15:54:33.687Z,7.50
2019-01-10T15:57:02.450Z,7.70
2019-01-10T15:59:31.229Z,7.50
2019-01-10T16:02:00.035Z,7.60
2019-01-10T16:04:28.564Z,7.60
2019-01-10T16:06:58.292Z,7.50
2019-01-10T16:09:26.880Z,7.50
2019-01-10T16:11:55.724Z,7.20
2019-01-10T16:14:24.418Z,7.30
2019-01-10T16:16:53.067Z,7.30
2019-01-10T16:19:21.584Z,7.00
2019-01-10T16:21:50.048Z,7.10
2019-01-10T16:24:18.896Z,6.70
2019-01-10T16:26:47.696Z,7.00
2019-01-10T16:34:13.188Z,6.70
2019-01-10T16:36:41.839Z,6.70
2019-01-10T16:39:10.614Z,6.80
2019-01-10T16:41:39.125Z,6.40
2019-01-10T16:44:07.922Z,6.10
2019-01-10T16:46:36.636Z,6.10
2019-01-10T16:49:05.440Z,5.80
2019-01-10T16:51:34.119Z,5.70
2019-01-10T16:54:02.643Z,5.60
2019-01-10T16:56:31.419Z,5.40
2019-01-10T17:01:28.312Z,5.30
2019-01-10T17:03:57.139Z,5.30
2019-01-10T17:06:25.773Z,5.30
2019-01-10T17:08:54.532Z,5.30
2019-01-10T17:11:23.347Z,5.30
2019-01-10T17:13:51.937Z,5.40
2019-01-10T17:16:20.708Z,5.50
2019-01-10T17:18:49.338Z,5.70
2019-01-10T17:21:18.129Z,5.70
2019-01-10T17:23:46.636Z,5.60
2019-01-10T17:26:16.490Z,5.20
2019-01-10T17:28:45.125Z,5.30
2019-01-10T17:31:13.671Z,5.10
2019-01-10T17:33:42.344Z,5.20
2019-01-10T17:36:11.191Z,5.10
2019-01-10T17:41:08.330Z,5.20
2019-01-10T17:46:05.507Z,5.20
2019-01-10T17:51:03.904Z,4.70
2019-01-10T17:56:00.803Z,4.70
2019-01-10T17:58:29.506Z,5.10
2019-01-10T18:00:59.346Z,4.60
2019-01-10T18:03:28.106Z,4.40
2019-01-10T18:05:56.769Z,4.40
2019-01-10T18:08:26.475Z,4.70
2019-01-10T18:13:42.886Z,4.90
2019-01-10T18:16:11.675Z,4.80
2019-01-10T18:18:40.281Z,5.30
2019-01-10T18:21:14.799Z,5.30
2019-01-10T18:23:39.412Z,5.10
2019-01-10T18:26:08.232Z,5.20
2019-01-10T18:28:38.000Z,5.20
2019-01-10T18:31:06.602Z,4.60
2019-01-10T18:33:35.342Z,5.00
2019-01-10T18:36:04.059Z,5.20
2019-01-10T18:38:32.901Z,4.60
2019-01-10T18:43:29.780Z,4.70
2019-01-10T18:45:58.418Z,5.10
2019-01-10T18:48:27.009Z,4.50
2019-01-10T18:55:52.648Z,4.70
2019-01-10T18:58:21.423Z,4.40
2019-01-10T19:00:50.031Z,4.00
2019-01-10T19:03:18.653Z,4.20
2019-01-10T19:08:15.840Z,4.10
2019-01-10T19:10:44.602Z,4.00
2019-01-10T19:13:13.257Z,3.50
2019-01-10T19:23:07.155Z,3.20
2019-01-10T19:25:35.866Z,3.50
2019-01-10T19:28:04.839Z,3.30
2019-01-10T19:30:35.737Z,3.90
2019-01-10T19:33:04.655Z,3.50
2019-01-10T19:38:01.794Z,3.40
2019-01-10T19:42:59.015Z,3.70
2019-01-10T19:45:27.544Z,3.20
2019-01-10T19:47:56.279Z,2.70
2019-01-10T19:50:25.832Z,2.80
2019-01-10T19:52:54.664Z,2.80
2019-01-10T19:55:23.764Z,2.80
2019-01-10T20:00:38.610Z,2.80
2019-01-10T20:03:08.593Z,3.00
2019-01-10T20:05:37.312Z,2.90
2019-01-10T20:08:06.047Z,2.90
2019-01-10T20:10:34.763Z,3.00
2019-01-10T20:13:03.544Z,2.90
2019-01-10T20:15:32.211Z,2.80
2019-01-10T20:18:01.587Z,2.90
2019-01-10T20:20:32.886Z,3.10
2019-01-10T20:23:02.055Z,3.00
2019-01-10T20:27:59.551Z,3.30
2019-01-10T20:30:28.264Z,3.30
2019-01-10T20:32:57.184Z,3.30
2019-01-10T20:35:25.976Z,3.10
2019-01-10T20:37:54.617Z,3.00
2019-01-10T20:40:23.393Z,2.90
2019-01-10T20:42:53.064Z,3.00
2019-01-10T20:50:18.776Z,2.80
2019-01-10T20:52:47.520Z,2.80
2019-01-10T20:55:16.356Z,3.10
2019-01-10T20:57:45.152Z,2.70
2019-01-10T21:00:16.580Z,2.60
2019-01-10T21:07:43.729Z,2.50
2019-01-10T21:12:42.217Z,2.50
2019-01-10T21:15:13.918Z,2.70
2019-01-10T21:20:12.166Z,2.60
2019-01-10T21:22:40.830Z,2.50
2019-01-10T21:25:09.805Z,2.70
2019-01-10T21:27:38.631Z,2.70
2019-01-10T21:30:09.292Z,3.00
2019-01-10T21:32:40.999Z,2.50
2019-01-10T21:35:09.087Z,2.70
2019-01-10T21:40:08.539Z,2.60
2019-01-10T21:42:37.215Z,2.80
2019-01-10T21:45:09.975Z,2.60
2019-01-10T21:47:38.776Z,2.60
2019-01-10T21:50:09.307Z,2.60
2019-01-10T21:55:08.079Z,2.10
2019-01-10T21:57:36.721Z,2.50
2019-01-10T22:05:05.848Z,2.60
2019-01-10T22:07:34.482Z,2.50
2019-01-10T22:10:03.883Z,2.50
2019-01-10T22:15:04.891Z,2.70
2019-01-10T22:17:33.503Z,2.80
2019-01-10T22:24:59.025Z,2.30
2019-01-10T22:27:27.752Z,2.20
2019-01-10T22:29:56.564Z,2.00
2019-01-10T22:34:53.435Z,2.90
2019-01-10T22:37:22.016Z,2.80
2019-01-10T22:42:19.211Z,2.50
2019-01-10T22:44:47.737Z,2.10
2019-01-10T22:47:16.465Z,2.00
2019-01-10T22:49:45.156Z,1.90
2019-01-10T22:52:13.752Z,2.00
2019-01-10T22:54:42.626Z,2.30
2019-01-10T22:57:11.151Z,2.30
2019-01-10T22:59:39.908Z,2.30
2019-01-10T23:02:09.585Z,2.60
2019-01-10T23:04:38.744Z,2.60
2019-01-10T23:07:32.970Z,2.40
2019-01-10T23:10:07.500Z,2.50
2019-01-10T23:12:36.655Z,2.90
2019-01-10T23:17:58.004Z,3.10
2019-01-10T23:20:26.828Z,2.60
2019-01-10T23:25:28.570Z,2.50
2019-01-10T23:27:57.143Z,2.50
2019-01-10T23:30:46.425Z,2.20
2019-01-10T23:33:15.345Z,2.40
2019-01-10T23:35:44.086Z,2.30
2019-01-10T23:38:12.651Z,2.20
2019-01-10T23:40:41.439Z,2.40
2019-01-10T23:43:10.100Z,2.70
2019-01-10T23:45:38.771Z,2.40
2019-01-10T23:48:07.362Z,2.40
2019-01-10T23:50:35.987Z,2.20
2019-01-10T23:53:04.727Z,2.50
2019-01-10T23:58:01.682Z,2.30
